createdAt,value
2018-07-13T00:02:16.327Z,19.20
2018-07-13T00:04:43.807Z,19.20
2018-07-13T00:07:12.260Z,19.10
2018-07-13T00:09:39.780Z,19.10
2018-07-13T00:14:34.697Z,19.00
2018-07-13T00:17:02.299Z,19.00
2018-07-13T00:19:29.817Z,18.90
2018-07-13T00:21:57.223Z,18.90
2018-07-13T00:24:24.661Z,18.80
2018-07-13T00:26:52.071Z,18.80
2018-07-13T00:29:19.569Z,18.70
2018-07-13T00:31:47.018Z,18.70
2018-07-13T00:34:14.423Z,18.70
2018-07-13T00:36:41.814Z,18.70
2018-07-13T00:39:10.944Z,18.60
2018-07-13T00:41:38.396Z,18.60
2018-07-13T00:44:07.500Z,18.60
2018-07-13T00:46:34.944Z,18.50
2018-07-13T00:49:02.405Z,18.50
2018-07-13T00:51:29.935Z,18.50
2018-07-13T00:56:24.755Z,18.50
2018-07-13T00:58:52.185Z,18.50
2018-07-13T01:01:19.624Z,18.40
2018-07-13T01:03:47.112Z,18.50
2018-07-13T01:11:09.431Z,18.40
2018-07-13T01:13:36.820Z,18.40
2018-07-13T01:16:04.391Z,18.40
2018-07-13T01:18:31.819Z,18.40
2018-07-13T01:20:59.295Z,18.30
2018-07-13T01:23:26.737Z,18.30
2018-07-13T01:25:54.151Z,18.30
2018-07-13T01:28:21.533Z,18.30
2018-07-13T01:30:49.044Z,18.20
2018-07-13T01:33:16.483Z,18.20
2018-07-13T01:35:43.949Z,18.20
2018-07-13T01:38:11.360Z,18.20
2018-07-13T01:40:38.808Z,18.10
2018-07-13T01:43:06.301Z,18.10
2018-07-13T01:45:33.695Z,18.10
2018-07-13T01:50:28.597Z,18.00
2018-07-13T01:52:55.991Z,18.00
2018-07-13T01:55:23.379Z,17.90
2018-07-13T01:57:50.762Z,17.90
2018-07-13T02:00:18.247Z,17.90
2018-07-13T02:02:45.681Z,17.80
2018-07-13T02:05:13.188Z,17.80
2018-07-13T02:07:40.808Z,17.80
2018-07-13T02:10:08.211Z,17.70
2018-07-13T02:15:03.058Z,17.70
2018-07-13T02:17:30.527Z,17.70
2018-07-13T02:19:57.928Z,17.60
2018-07-13T02:22:25.334Z,17.60
2018-07-13T02:24:52.672Z,17.60
2018-07-13T02:27:20.050Z,17.60
2018-07-13T02:29:47.407Z,17.50
2018-07-13T02:32:14.817Z,17.60
2018-07-13T02:34:42.192Z,17.50
2018-07-13T02:37:09.594Z,17.40
2018-07-13T02:39:36.992Z,17.50
2018-07-13T02:42:04.399Z,17.40
2018-07-13T02:44:32.598Z,17.40
2018-07-13T02:47:00.016Z,17.40
2018-07-13T02:49:27.387Z,17.30
2018-07-13T02:54:22.253Z,17.30
2018-07-13T02:56:49.979Z,17.20
2018-07-13T03:01:44.817Z,17.20
2018-07-13T03:04:12.236Z,17.10
2018-07-13T03:06:39.691Z,17.10
2018-07-13T03:09:08.371Z,17.10
2018-07-13T03:11:36.059Z,17.10
2018-07-13T03:14:03.832Z,17.10
2018-07-13T03:16:31.327Z,17.10
2018-07-13T03:18:58.761Z,17.10
2018-07-13T03:21:26.271Z,17.10
2018-07-13T03:23:53.689Z,17.00
2018-07-13T03:26:21.118Z,17.00
2018-07-13T03:28:48.542Z,17.00
2018-07-13T03:31:16.011Z,17.00
2018-07-13T03:33:43.444Z,17.00
2018-07-13T03:36:10.843Z,17.00
2018-07-13T03:41:05.905Z,17.00
2018-07-13T03:43:33.415Z,17.00
2018-07-13T03:50:55.752Z,17.00
2018-07-13T03:53:23.187Z,17.00
2018-07-13T03:55:50.589Z,16.90
2018-07-13T03:58:18.012Z,16.90
2018-07-13T04:00:45.504Z,16.90
2018-07-13T04:03:12.936Z,17.00
2018-07-13T04:05:40.480Z,17.00
2018-07-13T04:08:07.933Z,17.00
2018-07-13T04:10:35.416Z,16.90
2018-07-13T04:13:02.828Z,17.00
2018-07-13T04:15:30.279Z,17.00
2018-07-13T04:17:57.732Z,17.00
2018-07-13T04:20:25.176Z,17.00
2018-07-13T04:22:52.603Z,17.10
2018-07-13T04:25:20.172Z,17.10
2018-07-13T04:27:47.636Z,17.10
2018-07-13T04:30:15.101Z,17.10
2018-07-13T04:32:42.532Z,17.20
2018-07-13T04:35:10.004Z,17.20
2018-07-13T04:37:37.442Z,17.30
2018-07-13T04:40:04.881Z,17.30
2018-07-13T04:42:32.351Z,17.30
2018-07-13T04:44:59.780Z,17.40
2018-07-13T04:47:28.873Z,17.40
2018-07-13T04:50:02.434Z,17.40
2018-07-13T04:52:30.608Z,17.40
2018-07-13T04:55:03.386Z,17.40
2018-07-13T04:57:32.396Z,17.40
2018-07-13T05:02:35.133Z,17.70
2018-07-13T05:05:02.593Z,18.10
2018-07-13T05:07:30.140Z,18.60
2018-07-13T05:09:58.935Z,19.20
2018-07-13T05:12:29.044Z,19.90
2018-07-13T05:14:56.512Z,20.70
2018-07-13T05:17:23.932Z,21.30
2018-07-13T05:19:52.034Z,21.80
2018-07-13T05:24:48.547Z,22.80
2018-07-13T05:27:16.013Z,23.10
2018-07-13T05:29:46.695Z,23.30
2018-07-13T05:32:15.121Z,23.50
2018-07-13T05:34:44.513Z,23.70
2018-07-13T05:37:11.944Z,23.80
2018-07-13T05:39:39.236Z,23.80
2018-07-13T05:42:06.628Z,23.60
2018-07-13T05:44:33.920Z,23.40
2018-07-13T05:47:01.191Z,23.10
2018-07-13T05:49:28.509Z,22.90
2018-07-13T05:51:55.955Z,22.50
2018-07-13T05:54:26.944Z,22.20
2018-07-13T05:56:54.232Z,22.00
2018-07-13T05:59:22.423Z,21.70
2018-07-13T06:01:55.413Z,21.50
2018-07-13T06:04:22.708Z,21.20
2018-07-13T06:06:50.769Z,21.00
2018-07-13T06:09:18.040Z,20.80
2018-07-13T06:11:45.256Z,20.60
2018-07-13T06:14:12.504Z,20.40
2018-07-13T06:16:39.688Z,20.30
2018-07-13T06:19:06.987Z,20.20
2018-07-13T06:21:34.202Z,20.10
2018-07-13T06:24:02.131Z,20.00
2018-07-13T06:26:29.332Z,19.90
2018-07-13T06:28:56.630Z,19.80
2018-07-13T06:31:23.852Z,19.80
2018-07-13T06:33:51.085Z,19.70
2018-07-13T06:36:18.312Z,19.70
2018-07-13T06:38:45.526Z,19.60
2018-07-13T06:41:12.906Z,19.40
2018-07-13T06:43:40.156Z,19.40
2018-07-13T06:46:07.410Z,19.50
2018-07-13T06:48:34.635Z,19.40
2018-07-13T06:51:01.905Z,19.40
2018-07-13T06:53:29.152Z,19.50
2018-07-13T06:55:56.484Z,19.50
2018-07-13T07:01:01.681Z,19.60
2018-07-13T07:03:30.560Z,19.70
2018-07-13T07:06:00.789Z,19.70
2018-07-13T07:08:28.404Z,19.70
2018-07-13T07:10:56.117Z,19.60
2018-07-13T07:13:28.518Z,19.70
2018-07-13T07:15:55.948Z,19.80
2018-07-13T07:18:23.508Z,19.90
2018-07-13T07:20:50.968Z,20.00
2018-07-13T07:23:18.390Z,20.10
2018-07-13T07:25:45.797Z,20.10
2018-07-13T07:28:13.247Z,20.20
2018-07-13T07:30:40.847Z,20.20
2018-07-13T07:33:08.352Z,20.30
2018-07-13T07:35:35.783Z,20.40
2018-07-13T07:38:03.245Z,20.40
2018-07-13T07:40:30.865Z,20.30
2018-07-13T07:42:58.329Z,20.40
2018-07-13T07:45:25.793Z,20.60
2018-07-13T07:47:53.423Z,20.70
2018-07-13T07:50:20.883Z,20.80
2018-07-13T07:52:48.349Z,20.80
2018-07-13T07:55:15.784Z,20.90
2018-07-13T07:57:43.836Z,20.90
2018-07-13T08:00:11.296Z,20.90
2018-07-13T08:02:38.928Z,20.80
2018-07-13T08:05:06.381Z,20.80
2018-07-13T08:07:37.407Z,20.90
2018-07-13T08:10:04.824Z,21.00
2018-07-13T08:12:32.348Z,21.10
2018-07-13T08:14:59.882Z,21.10
2018-07-13T08:17:27.340Z,21.10
2018-07-13T08:19:55.160Z,21.20
2018-07-13T08:22:27.203Z,21.20
2018-07-13T08:24:56.530Z,21.20
2018-07-13T08:27:27.908Z,21.30
2018-07-13T08:29:56.385Z,21.30
2018-07-13T08:32:23.873Z,21.40
2018-07-13T08:34:51.308Z,21.40
2018-07-13T08:37:18.778Z,21.40
2018-07-13T08:39:47.348Z,21.50
2018-07-13T08:42:14.829Z,21.50
2018-07-13T08:44:42.263Z,21.50
2018-07-13T08:47:09.856Z,21.60
2018-07-13T08:49:37.430Z,21.60
2018-07-13T08:54:32.537Z,21.60
2018-07-13T08:57:00.336Z,21.70
2018-07-13T08:59:27.882Z,21.90
2018-07-13T09:01:56.338Z,22.00
2018-07-13T09:04:23.863Z,22.00
2018-07-13T09:06:51.376Z,22.00
2018-07-13T09:09:19.235Z,22.00
2018-07-13T09:11:47.088Z,22.00
2018-07-13T09:14:14.597Z,22.10
2018-07-13T09:16:42.052Z,22.10
2018-07-13T09:19:09.496Z,22.10
2018-07-13T09:21:37.460Z,22.10
2018-07-13T09:24:05.046Z,22.10
2018-07-13T09:26:32.452Z,22.10
2018-07-13T09:29:00.368Z,22.20
2018-07-13T09:31:27.788Z,22.20
2018-07-13T09:33:55.206Z,22.20
2018-07-13T09:36:22.781Z,22.30
2018-07-13T09:38:50.224Z,22.30
2018-07-13T09:41:17.691Z,22.30
2018-07-13T09:43:45.128Z,22.40
2018-07-13T09:46:12.622Z,22.50
2018-07-13T09:48:40.183Z,22.60
2018-07-13T09:51:07.620Z,22.70
2018-07-13T09:53:35.355Z,22.80
2018-07-13T09:56:02.749Z,22.90
2018-07-13T09:58:34.639Z,23.10
2018-07-13T10:01:07.833Z,23.20
2018-07-13T10:06:02.947Z,23.50
2018-07-13T10:08:30.967Z,23.70
2018-07-13T10:10:58.487Z,23.80
2018-07-13T10:15:55.060Z,24.30
2018-07-13T10:18:22.477Z,24.70
2018-07-13T10:20:50.185Z,25.00
2018-07-13T10:23:17.992Z,25.30
2018-07-13T10:25:46.200Z,25.40
2018-07-13T10:28:13.604Z,25.50
2018-07-13T10:30:41.095Z,25.80
2018-07-13T10:33:09.280Z,25.90
2018-07-13T10:35:38.480Z,26.30
2018-07-13T10:38:06.136Z,26.50
2018-07-13T10:40:34.314Z,26.70
2018-07-13T10:45:30.735Z,27.10
2018-07-13T10:47:59.199Z,27.30
2018-07-13T10:50:26.790Z,27.60
2018-07-13T10:52:54.259Z,28.00
2018-07-13T10:55:21.670Z,28.10
2018-07-13T10:57:49.088Z,28.10
2018-07-13T11:00:16.452Z,28.10
2018-07-13T11:05:11.257Z,28.30
2018-07-13T11:07:38.688Z,28.30
2018-07-13T11:10:06.169Z,28.30
2018-07-13T11:12:33.580Z,28.20
2018-07-13T11:15:00.984Z,28.30
2018-07-13T11:17:28.379Z,28.40
2018-07-13T11:19:55.772Z,28.60
2018-07-13T11:22:23.153Z,28.60
2018-07-13T11:24:50.552Z,28.80
2018-07-13T11:27:18.023Z,28.80
2018-07-13T11:29:45.439Z,28.70
2018-07-13T11:32:12.836Z,28.60
2018-07-13T11:34:40.269Z,28.60
2018-07-13T11:37:07.917Z,28.90
2018-07-13T11:39:35.091Z,29.10
2018-07-13T11:42:02.495Z,29.40
2018-07-13T11:46:57.195Z,29.90
2018-07-13T11:49:24.561Z,30.10
2018-07-13T11:51:51.969Z,30.30
2018-07-13T11:54:19.386Z,30.20
2018-07-13T11:56:46.804Z,30.00
2018-07-13T11:59:14.193Z,30.10
2018-07-13T12:01:41.591Z,30.30
2018-07-13T12:04:08.968Z,30.40
2018-07-13T12:06:36.496Z,30.50
2018-07-13T12:09:04.356Z,30.50
2018-07-13T12:11:31.756Z,30.40
2018-07-13T12:13:59.136Z,30.30
2018-07-13T12:16:26.789Z,30.20
2018-07-13T12:18:54.193Z,30.10
2018-07-13T12:21:21.620Z,29.90
2018-07-13T12:23:49.121Z,29.90
2018-07-13T12:26:16.539Z,29.80
2018-07-13T12:28:43.940Z,29.60
2018-07-13T12:31:11.327Z,29.60
2018-07-13T12:33:38.744Z,29.70
2018-07-13T12:36:06.128Z,29.90
2018-07-13T12:38:33.559Z,29.80
2018-07-13T12:41:00.996Z,29.90
2018-07-13T12:43:28.513Z,30.00
2018-07-13T12:45:55.947Z,30.20
2018-07-13T12:48:25.443Z,30.20
2018-07-13T12:50:52.953Z,30.20
2018-07-13T12:53:20.311Z,30.20
2018-07-13T12:55:47.727Z,30.20
2018-07-13T12:58:15.179Z,30.20
2018-07-13T13:00:42.595Z,30.10
2018-07-13T13:03:10.067Z,29.90
2018-07-13T13:05:37.485Z,29.90
2018-07-13T13:08:04.932Z,30.00
2018-07-13T13:10:32.347Z,29.90
2018-07-13T13:15:27.209Z,30.00
2018-07-13T13:17:54.717Z,30.00
2018-07-13T13:20:22.143Z,30.20
2018-07-13T13:22:49.511Z,30.40
2018-07-13T13:25:16.973Z,30.50
2018-07-13T13:30:11.776Z,30.30
2018-07-13T13:32:39.169Z,30.20
2018-07-13T13:35:06.599Z,30.30
2018-07-13T13:37:34.076Z,30.40
2018-07-13T13:42:28.916Z,30.70
2018-07-13T13:44:56.318Z,30.70
2018-07-13T13:47:23.709Z,30.70
2018-07-13T13:49:51.256Z,30.70
2018-07-13T13:52:18.630Z,30.50
2018-07-13T13:54:46.036Z,30.30
2018-07-13T13:59:40.870Z,30.30
2018-07-13T14:02:08.252Z,30.10
2018-07-13T14:04:35.684Z,30.00
2018-07-13T14:07:03.105Z,29.90
2018-07-13T14:09:30.507Z,29.90
2018-07-13T14:11:57.996Z,29.90
2018-07-13T14:14:25.460Z,30.00
2018-07-13T14:16:53.917Z,30.20
2018-07-13T14:19:21.315Z,30.10
2018-07-13T14:21:48.738Z,29.70
2018-07-13T14:24:16.123Z,29.30
2018-07-13T14:26:43.497Z,29.10
2018-07-13T14:29:11.020Z,29.10
2018-07-13T14:31:38.432Z,29.30
2018-07-13T14:34:05.830Z,29.60
2018-07-13T14:36:33.228Z,29.70
2018-07-13T14:41:28.091Z,29.50
2018-07-13T14:43:55.493Z,29.30
2018-07-13T14:46:22.960Z,29.10
2018-07-13T14:48:50.761Z,29.00
2018-07-13T14:51:18.169Z,28.90
2018-07-13T14:53:45.536Z,28.80
2018-07-13T14:56:13.057Z,28.60
2018-07-13T14:58:40.468Z,28.60
2018-07-13T15:03:35.392Z,29.00
2018-07-13T15:06:02.894Z,29.20
2018-07-13T15:08:31.295Z,29.20
2018-07-13T15:10:58.900Z,29.40
2018-07-13T15:13:26.288Z,29.60
2018-07-13T15:15:53.772Z,30.00
2018-07-13T15:18:21.206Z,29.90
2018-07-13T15:20:48.609Z,29.60
2018-07-13T15:23:16.086Z,29.00
2018-07-13T15:25:43.501Z,28.60
2018-07-13T15:28:10.888Z,28.50
2018-07-13T15:30:38.317Z,28.50
2018-07-13T15:33:05.825Z,28.70
2018-07-13T15:35:33.248Z,28.80
2018-07-13T15:38:00.624Z,28.90
2018-07-13T15:40:28.013Z,29.10
2018-07-13T15:42:55.421Z,29.00
2018-07-13T15:45:22.904Z,29.00
2018-07-13T15:47:50.275Z,29.10
2018-07-13T15:50:18.228Z,29.10
2018-07-13T15:52:45.765Z,29.00
2018-07-13T15:55:13.299Z,29.00
2018-07-13T15:57:41.223Z,28.90
2018-07-13T16:00:08.612Z,28.80
2018-07-13T16:02:36.060Z,28.70
2018-07-13T16:05:03.539Z,28.70
2018-07-13T16:07:30.964Z,28.60
2018-07-13T16:09:58.404Z,28.50
2018-07-13T16:12:25.810Z,28.40
2018-07-13T16:14:53.251Z,28.30
2018-07-13T16:17:20.667Z,28.30
2018-07-13T16:19:48.105Z,28.20
2018-07-13T16:24:43.045Z,28.10
2018-07-13T16:27:10.573Z,28.00
2018-07-13T16:29:38.097Z,27.90
2018-07-13T16:32:05.595Z,27.70
2018-07-13T16:34:33.023Z,27.60
2018-07-13T16:37:00.523Z,27.50
2018-07-13T16:41:55.484Z,27.30
2018-07-13T16:44:23.425Z,27.20
2018-07-13T16:46:50.922Z,27.10
2018-07-13T16:49:18.360Z,27.00
2018-07-13T16:51:45.780Z,27.00
2018-07-13T16:54:13.330Z,27.00
2018-07-13T16:56:40.850Z,27.00
2018-07-13T17:01:35.591Z,27.10
2018-07-13T17:04:03.044Z,27.10
2018-07-13T17:06:30.459Z,27.20
2018-07-13T17:08:57.969Z,27.10
2018-07-13T17:11:25.517Z,27.10
2018-07-13T17:13:52.882Z,27.00
2018-07-13T17:16:20.289Z,27.00
2018-07-13T17:18:47.716Z,27.10
2018-07-13T17:21:15.092Z,27.10
2018-07-13T17:23:42.595Z,27.10
2018-07-13T17:26:10.050Z,27.10
2018-07-13T17:28:37.438Z,27.10
2018-07-13T17:31:04.965Z,27.20
2018-07-13T17:33:32.451Z,27.20
2018-07-13T17:35:59.839Z,27.20
2018-07-13T17:38:27.492Z,27.20
2018-07-13T17:40:54.874Z,27.20
2018-07-13T17:43:22.264Z,27.20
2018-07-13T17:45:49.665Z,27.10
2018-07-13T17:48:17.059Z,27.10
2018-07-13T17:50:44.476Z,27.10
2018-07-13T17:53:11.902Z,27.00
2018-07-13T17:58:06.836Z,27.00
2018-07-13T18:00:34.310Z,26.90
2018-07-13T18:03:01.652Z,26.90
2018-07-13T18:05:29.047Z,26.90
2018-07-13T18:07:56.529Z,26.80
2018-07-13T18:10:23.909Z,26.70
2018-07-13T18:12:51.485Z,26.70
2018-07-13T18:15:18.775Z,26.60
2018-07-13T18:17:46.143Z,26.60
2018-07-13T18:20:18.207Z,26.50
2018-07-13T18:22:45.596Z,26.50
2018-07-13T18:27:40.509Z,26.50
2018-07-13T18:30:08.060Z,26.40
2018-07-13T18:35:02.928Z,26.40
2018-07-13T18:37:30.451Z,26.30
2018-07-13T18:42:29.264Z,26.20
2018-07-13T18:44:58.172Z,26.20
2018-07-13T18:49:53.340Z,26.10
2018-07-13T18:52:20.717Z,26.10
2018-07-13T18:54:48.136Z,26.00
2018-07-13T18:57:15.527Z,25.90
2018-07-13T19:02:10.498Z,25.90
2018-07-13T19:04:37.901Z,25.80
2018-07-13T19:07:05.301Z,25.80
2018-07-13T19:09:32.667Z,25.70
2018-07-13T19:12:00.056Z,25.70
2018-07-13T19:14:27.436Z,25.60
2018-07-13T19:19:22.337Z,25.50
2018-07-13T19:21:49.827Z,25.40
2018-07-13T19:29:13.252Z,25.20
2018-07-13T19:31:40.696Z,25.10
2018-07-13T19:34:08.164Z,25.00
2018-07-13T19:36:35.584Z,24.90
2018-07-13T19:39:05.019Z,24.90
2018-07-13T19:41:32.453Z,24.80
2018-07-13T19:43:59.975Z,24.70
2018-07-13T19:46:27.419Z,24.70
2018-07-13T19:48:55.880Z,24.70
2018-07-13T19:51:23.438Z,24.60
2018-07-13T19:56:18.577Z,24.40
2018-07-13T19:58:46.053Z,24.20
2018-07-13T20:01:13.517Z,24.20
2018-07-13T20:03:40.890Z,24.10
2018-07-13T20:06:08.123Z,24.00
2018-07-13T20:08:35.469Z,23.90
2018-07-13T20:11:02.895Z,23.80
2018-07-13T20:13:30.208Z,23.80
2018-07-13T20:18:24.873Z,23.70
2018-07-13T20:20:52.224Z,23.60
2018-07-13T20:23:19.620Z,23.60
2018-07-13T20:25:46.940Z,23.50
2018-07-13T20:28:14.193Z,23.40
2018-07-13T20:30:42.516Z,23.30
2018-07-13T20:33:09.981Z,23.20
2018-07-13T20:35:39.203Z,23.20
2018-07-13T20:38:06.580Z,23.10
2018-07-13T20:40:33.865Z,23.10
2018-07-13T20:43:02.137Z,23.00
2018-07-13T20:45:29.555Z,22.90
2018-07-13T20:47:56.827Z,22.90
2018-07-13T20:50:24.054Z,22.80
2018-07-13T20:52:52.408Z,22.70
2018-07-13T20:55:20.744Z,22.70
2018-07-13T20:57:48.088Z,22.60
2018-07-13T21:00:15.465Z,22.50
2018-07-13T21:02:43.888Z,22.50
2018-07-13T21:05:12.256Z,22.40
2018-07-13T21:07:39.557Z,22.30
2018-07-13T21:10:06.849Z,22.30
2018-07-13T21:12:35.064Z,22.20
2018-07-13T21:15:02.293Z,22.20
2018-07-13T21:17:29.590Z,22.10
2018-07-13T21:19:56.925Z,22.10
2018-07-13T21:22:26.152Z,22.00
2018-07-13T21:24:53.497Z,21.90
2018-07-13T21:27:20.787Z,21.90
2018-07-13T21:29:48.067Z,21.80
2018-07-13T21:32:15.248Z,21.80
2018-07-13T21:34:42.549Z,21.70
2018-07-13T21:37:09.756Z,21.70
2018-07-13T21:39:38.055Z,21.60
2018-07-13T21:42:05.880Z,21.50
2018-07-13T21:44:33.123Z,21.50
2018-07-13T21:47:00.324Z,21.40
2018-07-13T21:49:27.610Z,21.40
2018-07-13T21:54:22.115Z,21.20
2018-07-13T21:56:49.308Z,21.20
2018-07-13T21:59:16.498Z,21.20
2018-07-13T22:01:43.711Z,21.30
2018-07-13T22:04:10.951Z,21.30
2018-07-13T22:06:38.132Z,21.30
2018-07-13T22:09:05.584Z,21.30
2018-07-13T22:11:32.811Z,21.30
2018-07-13T22:14:01.097Z,21.30
2018-07-13T22:16:29.456Z,21.30
2018-07-13T22:18:56.718Z,21.30
2018-07-13T22:21:23.911Z,21.20
2018-07-13T22:23:51.157Z,21.30
2018-07-13T22:26:18.348Z,21.30
2018-07-13T22:28:46.560Z,21.20
2018-07-13T22:31:13.752Z,21.20
2018-07-13T22:33:40.949Z,21.20
2018-07-13T22:36:08.196Z,21.20
2018-07-13T22:38:35.367Z,21.20
2018-07-13T22:41:02.620Z,21.20
2018-07-13T22:43:29.816Z,21.30
2018-07-13T22:45:57.228Z,21.30
2018-07-13T22:48:24.545Z,21.20
2018-07-13T22:50:51.779Z,21.20
2018-07-13T22:53:18.968Z,21.10
2018-07-13T22:55:46.246Z,21.10
2018-07-13T22:58:14.611Z,21.10
2018-07-13T23:00:54.328Z,21.10
2018-07-13T23:03:21.768Z,21.10
2018-07-13T23:05:49.189Z,21.00
2018-07-13T23:08:16.692Z,21.00
2018-07-13T23:15:39.057Z,20.90
2018-07-13T23:18:06.878Z,20.90
2018-07-13T23:20:34.306Z,20.90
2018-07-13T23:30:24.287Z,20.70
2018-07-13T23:32:51.723Z,20.70
2018-07-13T23:35:19.231Z,20.60
2018-07-13T23:37:46.671Z,20.60
2018-07-13T23:40:14.176Z,20.50
2018-07-13T23:42:41.695Z,20.50
2018-07-13T23:47:36.811Z,20.40
2018-07-13T23:50:04.382Z,20.40
2018-07-13T23:54:59.415Z,20.30
2018-07-13T23:57:26.863Z,20.40
2018-07-13T23:59:54.419Z,20.30
